sensor_id;sensor_type;location;lat;lon;timestamp;P1;durP1;ratioP1;P2;durP2;ratioP2
53751;SDS011;41095;53.090;6.692;2023-02-28T00:00:48;7.35;;;4.22;;
53751;SDS011;41095;53.090;6.692;2023-02-28T00:03:15;6.95;;;4.05;;
53751;SDS011;41095;53.090;6.692;2023-02-28T00:05:40;4.35;;;2.97;;
53751;SDS011;41095;53.090;6.692;2023-02-28T00:08:06;7.95;;;3.90;;
53751;SDS011;41095;53.090;6.692;2023-02-28T00:10:33;7.00;;;4.22;;
53751;SDS011;41095;53.090;6.692;2023-02-28T00:13:01;5.47;;;3.95;;
53751;SDS011;41095;53.090;6.692;2023-02-28T00:15:29;5.20;;;4.20;;
53751;SDS011;41095;53.090;6.692;2023-02-28T00:17:55;5.78;;;4.35;;
53751;SDS011;41095;53.090;6.692;2023-02-28T00:20:21;4.70;;;3.80;;
53751;SDS011;41095;53.090;6.692;2023-02-28T00:22:48;4.85;;;4.05;;
53751;SDS011;41095;53.090;6.692;2023-02-28T00:25:16;8.70;;;3.70;;
53751;SDS011;41095;53.090;6.692;2023-02-28T00:27:45;6.68;;;4.20;;
53751;SDS011;41095;53.090;6.692;2023-02-28T00:30:12;7.95;;;4.20;;
53751;SDS011;41095;53.090;6.692;2023-02-28T00:32:39;5.70;;;4.35;;
53751;SDS011;41095;53.090;6.692;2023-02-28T00:35:05;5.75;;;4.65;;
53751;SDS011;41095;53.090;6.692;2023-02-28T00:37:32;8.15;;;4.57;;
53751;SDS011;41095;53.090;6.692;2023-02-28T00:39:58;7.85;;;4.85;;
53751;SDS011;41095;53.090;6.692;2023-02-28T00:42:24;8.02;;;4.70;;
53751;SDS011;41095;53.090;6.692;2023-02-28T00:44:50;5.13;;;4.38;;
53751;SDS011;41095;53.090;6.692;2023-02-28T00:47:16;5.82;;;4.88;;
53751;SDS011;41095;53.090;6.692;2023-02-28T00:49:42;6.47;;;5.30;;
53751;SDS011;41095;53.090;6.692;2023-02-28T00:52:07;5.25;;;4.50;;
53751;SDS011;41095;53.090;6.692;2023-02-28T00:54:33;7.82;;;5.30;;
53751;SDS011;41095;53.090;6.692;2023-02-28T00:56:59;9.02;;;4.88;;
53751;SDS011;41095;53.090;6.692;2023-02-28T00:59:24;5.55;;;3.95;;
53751;SDS011;41095;53.090;6.692;2023-02-28T01:01:50;5.70;;;4.35;;
53751;SDS011;41095;53.090;6.692;2023-02-28T01:04:16;7.88;;;4.95;;
53751;SDS011;41095;53.090;6.692;2023-02-28T01:06:42;9.27;;;6.05;;
53751;SDS011;41095;53.090;6.692;2023-02-28T01:09:08;6.40;;;4.60;;
53751;SDS011;41095;53.090;6.692;2023-02-28T01:11:34;7.00;;;4.72;;
53751;SDS011;41095;53.090;6.692;2023-02-28T01:14:00;6.13;;;4.70;;
53751;SDS011;41095;53.090;6.692;2023-02-28T01:16:26;10.88;;;4.85;;
53751;SDS011;41095;53.090;6.692;2023-02-28T01:18:52;6.93;;;5.03;;
53751;SDS011;41095;53.090;6.692;2023-02-28T01:21:19;6.32;;;5.22;;
53751;SDS011;41095;53.090;6.692;2023-02-28T01:23:45;7.10;;;5.10;;
53751;SDS011;41095;53.090;6.692;2023-02-28T01:26:13;9.57;;;5.38;;
53751;SDS011;41095;53.090;6.692;2023-02-28T01:28:49;8.50;;;5.15;;
53751;SDS011;41095;53.090;6.692;2023-02-28T01:31:16;9.45;;;5.18;;
53751;SDS011;41095;53.090;6.692;2023-02-28T01:33:43;9.63;;;6.85;;
53751;SDS011;41095;53.090;6.692;2023-02-28T01:36:14;12.07;;;8.60;;
53751;SDS011;41095;53.090;6.692;2023-02-28T01:38:44;18.33;;;9.60;;
53751;SDS011;41095;53.090;6.692;2023-02-28T01:41:18;12.73;;;7.97;;
53751;SDS011;41095;53.090;6.692;2023-02-28T01:46:28;10.05;;;6.47;;
53751;SDS011;41095;53.090;6.692;2023-02-28T01:49:08;11.05;;;7.15;;
53751;SDS011;41095;53.090;6.692;2023-02-28T01:51:46;9.30;;;6.25;;
53751;SDS011;41095;53.090;6.692;2023-02-28T01:54:19;9.35;;;7.90;;
53751;SDS011;41095;53.090;6.692;2023-02-28T01:57:11;11.73;;;6.95;;
53751;SDS011;41095;53.090;6.692;2023-02-28T01:59:59;9.63;;;5.68;;
53751;SDS011;41095;53.090;6.692;2023-02-28T02:02:32;8.32;;;6.65;;
53751;SDS011;41095;53.090;6.692;2023-02-28T02:05:00;9.52;;;6.50;;
53751;SDS011;41095;53.090;6.692;2023-02-28T02:07:31;7.88;;;6.47;;
53751;SDS011;41095;53.090;6.692;2023-02-28T02:10:05;7.10;;;5.93;;
53751;SDS011;41095;53.090;6.692;2023-02-28T02:26:24;9.57;;;6.53;;
53751;SDS011;41095;53.090;6.692;2023-02-28T02:39:53;7.47;;;6.55;;
53751;SDS011;41095;53.090;6.692;2023-02-28T02:42:27;12.02;;;6.22;;
53751;SDS011;41095;53.090;6.692;2023-02-28T02:45:02;12.38;;;7.07;;
53751;SDS011;41095;53.090;6.692;2023-02-28T02:47:39;7.85;;;7.10;;
53751;SDS011;41095;53.090;6.692;2023-02-28T02:50:08;11.77;;;7.60;;
53751;SDS011;41095;53.090;6.692;2023-02-28T02:52:42;14.43;;;7.53;;
53751;SDS011;41095;53.090;6.692;2023-02-28T02:55:11;10.68;;;7.45;;
53751;SDS011;41095;53.090;6.692;2023-02-28T02:57:41;9.48;;;7.82;;
53751;SDS011;41095;53.090;6.692;2023-02-28T03:00:12;12.55;;;9.30;;
53751;SDS011;41095;53.090;6.692;2023-02-28T03:02:41;11.00;;;6.82;;
53751;SDS011;41095;53.090;6.692;2023-02-28T03:05:23;14.00;;;7.65;;
53751;SDS011;41095;53.090;6.692;2023-02-28T03:08:08;10.95;;;7.75;;
53751;SDS011;41095;53.090;6.692;2023-02-28T03:10:44;12.82;;;8.00;;
53751;SDS011;41095;53.090;6.692;2023-02-28T03:16:22;9.43;;;8.27;;
53751;SDS011;41095;53.090;6.692;2023-02-28T03:21:34;11.52;;;7.60;;
53751;SDS011;41095;53.090;6.692;2023-02-28T03:24:21;10.93;;;7.65;;
53751;SDS011;41095;53.090;6.692;2023-02-28T03:26:55;9.07;;;7.82;;
53751;SDS011;41095;53.090;6.692;2023-02-28T03:29:37;13.50;;;8.68;;
53751;SDS011;41095;53.090;6.692;2023-02-28T03:32:17;10.48;;;7.88;;
53751;SDS011;41095;53.090;6.692;2023-02-28T03:34:58;7.63;;;6.45;;
53751;SDS011;41095;53.090;6.692;2023-02-28T03:37:32;10.40;;;7.50;;
53751;SDS011;41095;53.090;6.692;2023-02-28T03:40:22;8.55;;;7.38;;
53751;SDS011;41095;53.090;6.692;2023-02-28T03:42:53;9.73;;;7.57;;
53751;SDS011;41095;53.090;6.692;2023-02-28T03:45:25;11.43;;;8.18;;
53751;SDS011;41095;53.090;6.692;2023-02-28T03:47:58;6.90;;;6.20;;
53751;SDS011;41095;53.090;6.692;2023-02-28T03:50:34;6.95;;;6.10;;
53751;SDS011;41095;53.090;6.692;2023-02-28T03:55:33;8.88;;;6.82;;
53751;SDS011;41095;53.090;6.692;2023-02-28T03:58:05;8.50;;;6.22;;
53751;SDS011;41095;53.090;6.692;2023-02-28T04:00:45;7.72;;;6.53;;
53751;SDS011;41095;53.090;6.692;2023-02-28T04:03:14;11.85;;;7.80;;
53751;SDS011;41095;53.090;6.692;2023-02-28T04:05:53;8.82;;;6.88;;
53751;SDS011;41095;53.090;6.692;2023-02-28T04:08:20;8.10;;;7.22;;
53751;SDS011;41095;53.090;6.692;2023-02-28T04:10:50;8.00;;;7.20;;
53751;SDS011;41095;53.090;6.692;2023-02-28T04:13:21;10.60;;;7.30;;
53751;SDS011;41095;53.090;6.692;2023-02-28T04:15:46;9.45;;;6.25;;
53751;SDS011;41095;53.090;6.692;2023-02-28T04:18:12;10.70;;;8.75;;
53751;SDS011;41095;53.090;6.692;2023-02-28T04:20:38;7.30;;;5.57;;
53751;SDS011;41095;53.090;6.692;2023-02-28T04:23:03;10.60;;;8.30;;
53751;SDS011;41095;53.090;6.692;2023-02-28T04:25:29;9.48;;;8.00;;
53751;SDS011;41095;53.090;6.692;2023-02-28T04:27:55;9.35;;;8.35;;
53751;SDS011;41095;53.090;6.692;2023-02-28T04:30:20;7.63;;;6.85;;
53751;SDS011;41095;53.090;6.692;2023-02-28T04:32:46;8.10;;;6.63;;
53751;SDS011;41095;53.090;6.692;2023-02-28T04:35:12;10.63;;;7.82;;
53751;SDS011;41095;53.090;6.692;2023-02-28T04:37:37;13.93;;;9.18;;
53751;SDS011;41095;53.090;6.692;2023-02-28T04:40:03;10.57;;;9.07;;
53751;SDS011;41095;53.090;6.692;2023-02-28T04:42:29;8.73;;;7.43;;
53751;SDS011;41095;53.090;6.692;2023-02-28T04:45:01;11.45;;;8.38;;
53751;SDS011;41095;53.090;6.692;2023-02-28T04:47:27;14.10;;;9.18;;
53751;SDS011;41095;53.090;6.692;2023-02-28T04:49:53;11.88;;;9.02;;
53751;SDS011;41095;53.090;6.692;2023-02-28T04:52:19;10.93;;;8.57;;
53751;SDS011;41095;53.090;6.692;2023-02-28T04:54:45;13.63;;;9.70;;
53751;SDS011;41095;53.090;6.692;2023-02-28T04:57:10;11.00;;;8.07;;
53751;SDS011;41095;53.090;6.692;2023-02-28T04:59:36;13.13;;;8.95;;
53751;SDS011;41095;53.090;6.692;2023-02-28T05:02:02;11.63;;;9.15;;
53751;SDS011;41095;53.090;6.692;2023-02-28T05:04:32;10.88;;;8.88;;
53751;SDS011;41095;53.090;6.692;2023-02-28T05:06:59;11.70;;;9.05;;
53751;SDS011;41095;53.090;6.692;2023-02-28T05:09:26;10.82;;;8.52;;
53751;SDS011;41095;53.090;6.692;2023-02-28T05:11:53;10.23;;;9.23;;
53751;SDS011;41095;53.090;6.692;2023-02-28T05:14:19;11.82;;;9.38;;
53751;SDS011;41095;53.090;6.692;2023-02-28T05:16:45;11.38;;;9.95;;
53751;SDS011;41095;53.090;6.692;2023-02-28T05:19:11;10.85;;;9.13;;
53751;SDS011;41095;53.090;6.692;2023-02-28T05:21:40;10.57;;;8.98;;
53751;SDS011;41095;53.090;6.692;2023-02-28T05:24:13;11.55;;;9.80;;
53751;SDS011;41095;53.090;6.692;2023-02-28T05:26:42;13.52;;;8.65;;
53751;SDS011;41095;53.090;6.692;2023-02-28T05:29:08;9.32;;;8.23;;
53751;SDS011;41095;53.090;6.692;2023-02-28T05:31:34;19.98;;;11.70;;
53751;SDS011;41095;53.090;6.692;2023-02-28T05:34:00;9.60;;;8.15;;
53751;SDS011;41095;53.090;6.692;2023-02-28T05:36:26;12.98;;;9.20;;
53751;SDS011;41095;53.090;6.692;2023-02-28T05:38:52;11.55;;;9.77;;
53751;SDS011;41095;53.090;6.692;2023-02-28T05:41:18;18.50;;;12.65;;
53751;SDS011;41095;53.090;6.692;2023-02-28T05:43:45;15.70;;;10.98;;
53751;SDS011;41095;53.090;6.692;2023-02-28T05:46:11;13.90;;;10.90;;
53751;SDS011;41095;53.090;6.692;2023-02-28T05:48:38;14.00;;;10.95;;
53751;SDS011;41095;53.090;6.692;2023-02-28T05:51:07;12.18;;;9.88;;
53751;SDS011;41095;53.090;6.692;2023-02-28T05:53:33;16.10;;;10.73;;
53751;SDS011;41095;53.090;6.692;2023-02-28T05:56:00;10.75;;;9.65;;
53751;SDS011;41095;53.090;6.692;2023-02-28T05:58:26;16.00;;;10.73;;
53751;SDS011;41095;53.090;6.692;2023-02-28T06:00:55;13.43;;;10.63;;
53751;SDS011;41095;53.090;6.692;2023-02-28T06:03:22;15.40;;;10.80;;
53751;SDS011;41095;53.090;6.692;2023-02-28T06:05:47;18.20;;;12.02;;
53751;SDS011;41095;53.090;6.692;2023-02-28T06:08:13;13.45;;;11.20;;
53751;SDS011;41095;53.090;6.692;2023-02-28T06:10:39;12.57;;;10.43;;
53751;SDS011;41095;53.090;6.692;2023-02-28T06:13:05;15.32;;;11.68;;
53751;SDS011;41095;53.090;6.692;2023-02-28T06:15:31;14.55;;;10.70;;
53751;SDS011;41095;53.090;6.692;2023-02-28T06:17:57;14.18;;;10.75;;
53751;SDS011;41095;53.090;6.692;2023-02-28T06:20:23;15.63;;;11.45;;
53751;SDS011;41095;53.090;6.692;2023-02-28T06:22:54;18.63;;;12.20;;
53751;SDS011;41095;53.090;6.692;2023-02-28T06:25:26;12.75;;;11.38;;
53751;SDS011;41095;53.090;6.692;2023-02-28T06:27:53;14.88;;;11.30;;
53751;SDS011;41095;53.090;6.692;2023-02-28T06:30:20;14.77;;;11.80;;
53751;SDS011;41095;53.090;6.692;2023-02-28T06:32:50;13.15;;;11.63;;
53751;SDS011;41095;53.090;6.692;2023-02-28T06:35:17;17.27;;;10.68;;
53751;SDS011;41095;53.090;6.692;2023-02-28T06:37:43;16.55;;;13.05;;
53751;SDS011;41095;53.090;6.692;2023-02-28T06:40:09;17.02;;;13.88;;
53751;SDS011;41095;53.090;6.692;2023-02-28T06:42:35;14.18;;;12.65;;
53751;SDS011;41095;53.090;6.692;2023-02-28T06:45:01;17.02;;;13.18;;
53751;SDS011;41095;53.090;6.692;2023-02-28T06:47:30;16.83;;;11.95;;
53751;SDS011;41095;53.090;6.692;2023-02-28T06:49:56;13.93;;;11.85;;
53751;SDS011;41095;53.090;6.692;2023-02-28T06:52:22;18.05;;;13.05;;
53751;SDS011;41095;53.090;6.692;2023-02-28T06:54:48;16.08;;;11.88;;
53751;SDS011;41095;53.090;6.692;2023-02-28T06:57:24;13.85;;;11.48;;
53751;SDS011;41095;53.090;6.692;2023-02-28T06:59:52;16.33;;;11.95;;
53751;SDS011;41095;53.090;6.692;2023-02-28T07:02:18;17.05;;;11.60;;
53751;SDS011;41095;53.090;6.692;2023-02-28T07:04:44;17.10;;;11.05;;
53751;SDS011;41095;53.090;6.692;2023-02-28T07:07:09;18.90;;;13.48;;
53751;SDS011;41095;53.090;6.692;2023-02-28T07:09:35;16.02;;;13.07;;
53751;SDS011;41095;53.090;6.692;2023-02-28T07:12:01;22.92;;;12.75;;
53751;SDS011;41095;53.090;6.692;2023-02-28T07:14:26;14.32;;;11.73;;
53751;SDS011;41095;53.090;6.692;2023-02-28T07:16:52;17.33;;;13.55;;
53751;SDS011;41095;53.090;6.692;2023-02-28T07:19:18;17.98;;;12.18;;
53751;SDS011;41095;53.090;6.692;2023-02-28T07:21:43;20.40;;;13.93;;
53751;SDS011;41095;53.090;6.692;2023-02-28T07:24:10;17.58;;;12.18;;
53751;SDS011;41095;53.090;6.692;2023-02-28T07:26:35;16.63;;;11.85;;
53751;SDS011;41095;53.090;6.692;2023-02-28T07:29:02;12.45;;;10.85;;
53751;SDS011;41095;53.090;6.692;2023-02-28T07:31:28;15.43;;;11.63;;
53751;SDS011;41095;53.090;6.692;2023-02-28T07:33:54;17.83;;;11.70;;
53751;SDS011;41095;53.090;6.692;2023-02-28T07:36:21;14.65;;;12.27;;
53751;SDS011;41095;53.090;6.692;2023-02-28T07:38:47;12.63;;;11.05;;
53751;SDS011;41095;53.090;6.692;2023-02-28T07:41:18;13.98;;;11.52;;
53751;SDS011;41095;53.090;6.692;2023-02-28T07:43:46;16.95;;;12.70;;
53751;SDS011;41095;53.090;6.692;2023-02-28T07:46:13;17.08;;;12.02;;
53751;SDS011;41095;53.090;6.692;2023-02-28T07:48:40;14.88;;;10.55;;
53751;SDS011;41095;53.090;6.692;2023-02-28T07:51:06;15.45;;;12.13;;
53751;SDS011;41095;53.090;6.692;2023-02-28T07:53:32;15.85;;;11.60;;
53751;SDS011;41095;53.090;6.692;2023-02-28T07:55:58;14.60;;;10.85;;
53751;SDS011;41095;53.090;6.692;2023-02-28T07:58:26;14.15;;;10.73;;
53751;SDS011;41095;53.090;6.692;2023-02-28T08:00:52;17.77;;;12.68;;
53751;SDS011;41095;53.090;6.692;2023-02-28T08:03:19;16.30;;;13.13;;
53751;SDS011;41095;53.090;6.692;2023-02-28T08:05:49;16.75;;;12.60;;
53751;SDS011;41095;53.090;6.692;2023-02-28T08:08:15;15.63;;;12.95;;
53751;SDS011;41095;53.090;6.692;2023-02-28T08:10:42;16.73;;;12.40;;
53751;SDS011;41095;53.090;6.692;2023-02-28T08:13:08;18.92;;;13.40;;
53751;SDS011;41095;53.090;6.692;2023-02-28T08:15:34;17.55;;;12.02;;
53751;SDS011;41095;53.090;6.692;2023-02-28T08:18:00;18.52;;;11.75;;
53751;SDS011;41095;53.090;6.692;2023-02-28T08:20:25;15.20;;;10.48;;
53751;SDS011;41095;53.090;6.692;2023-02-28T08:22:52;15.98;;;10.93;;
53751;SDS011;41095;53.090;6.692;2023-02-28T08:25:17;13.48;;;10.00;;
53751;SDS011;41095;53.090;6.692;2023-02-28T08:27:43;15.75;;;11.20;;
53751;SDS011;41095;53.090;6.692;2023-02-28T08:30:10;14.35;;;11.20;;
53751;SDS011;41095;53.090;6.692;2023-02-28T08:32:37;17.88;;;11.35;;
53751;SDS011;41095;53.090;6.692;2023-02-28T08:35:03;18.83;;;12.07;;
53751;SDS011;41095;53.090;6.692;2023-02-28T08:37:29;15.73;;;11.90;;
53751;SDS011;41095;53.090;6.692;2023-02-28T08:39:55;17.38;;;11.85;;
53751;SDS011;41095;53.090;6.692;2023-02-28T08:42:21;14.07;;;10.18;;
53751;SDS011;41095;53.090;6.692;2023-02-28T08:44:46;13.40;;;11.18;;
53751;SDS011;41095;53.090;6.692;2023-02-28T08:47:12;16.15;;;11.93;;
53751;SDS011;41095;53.090;6.692;2023-02-28T08:49:38;14.82;;;9.95;;
53751;SDS011;41095;53.090;6.692;2023-02-28T08:52:03;15.00;;;10.52;;
53751;SDS011;41095;53.090;6.692;2023-02-28T08:54:29;14.00;;;11.02;;
53751;SDS011;41095;53.090;6.692;2023-02-28T08:56:57;16.60;;;10.50;;
53751;SDS011;41095;53.090;6.692;2023-02-28T08:59:22;10.57;;;7.88;;
53751;SDS011;41095;53.090;6.692;2023-02-28T09:01:48;16.08;;;10.45;;
53751;SDS011;41095;53.090;6.692;2023-02-28T09:04:14;10.90;;;8.65;;
53751;SDS011;41095;53.090;6.692;2023-02-28T09:06:40;10.27;;;7.80;;
53751;SDS011;41095;53.090;6.692;2023-02-28T09:09:05;11.88;;;9.45;;
53751;SDS011;41095;53.090;6.692;2023-02-28T09:11:32;12.52;;;9.75;;
53751;SDS011;41095;53.090;6.692;2023-02-28T09:14:00;13.30;;;9.13;;
53751;SDS011;41095;53.090;6.692;2023-02-28T09:16:28;13.10;;;9.13;;
53751;SDS011;41095;53.090;6.692;2023-02-28T09:18:55;15.20;;;8.38;;
53751;SDS011;41095;53.090;6.692;2023-02-28T09:21:21;11.75;;;8.23;;
53751;SDS011;41095;53.090;6.692;2023-02-28T09:23:48;13.63;;;8.73;;
53751;SDS011;41095;53.090;6.692;2023-02-28T09:26:19;12.23;;;8.05;;
53751;SDS011;41095;53.090;6.692;2023-02-28T09:28:50;10.52;;;8.07;;
53751;SDS011;41095;53.090;6.692;2023-02-28T09:31:17;10.82;;;7.60;;
53751;SDS011;41095;53.090;6.692;2023-02-28T09:33:48;9.55;;;7.47;;
53751;SDS011;41095;53.090;6.692;2023-02-28T09:36:15;7.82;;;6.10;;
53751;SDS011;41095;53.090;6.692;2023-02-28T09:38:41;11.07;;;9.05;;
53751;SDS011;41095;53.090;6.692;2023-02-28T09:41:17;9.98;;;6.07;;
53751;SDS011;41095;53.090;6.692;2023-02-28T09:43:50;11.70;;;8.48;;
53751;SDS011;41095;53.090;6.692;2023-02-28T09:49:12;9.10;;;7.10;;
53751;SDS011;41095;53.090;6.692;2023-02-28T09:54:28;13.77;;;7.65;;
53751;SDS011;41095;53.090;6.692;2023-02-28T09:57:08;8.55;;;6.60;;
53751;SDS011;41095;53.090;6.692;2023-02-28T10:05:16;9.18;;;6.90;;
53751;SDS011;41095;53.090;6.692;2023-02-28T10:10:42;7.22;;;6.05;;
53751;SDS011;41095;53.090;6.692;2023-02-28T10:16:02;7.15;;;5.63;;
53751;SDS011;41095;53.090;6.692;2023-02-28T10:18:51;7.25;;;4.35;;
53751;SDS011;41095;53.090;6.692;2023-02-28T10:21:31;7.18;;;4.65;;
53751;SDS011;41095;53.090;6.692;2023-02-28T10:24:11;5.22;;;4.72;;
53751;SDS011;41095;53.090;6.692;2023-02-28T10:26:45;5.93;;;4.55;;
53751;SDS011;41095;53.090;6.692;2023-02-28T10:29:13;4.68;;;4.25;;
53751;SDS011;41095;53.090;6.692;2023-02-28T10:31:39;5.35;;;4.65;;
53751;SDS011;41095;53.090;6.692;2023-02-28T10:34:05;5.57;;;4.85;;
53751;SDS011;41095;53.090;6.692;2023-02-28T10:36:31;3.83;;;3.38;;
53751;SDS011;41095;53.090;6.692;2023-02-28T10:38:57;4.07;;;3.47;;
53751;SDS011;41095;53.090;6.692;2023-02-28T10:43:53;6.38;;;3.17;;
53751;SDS011;41095;53.090;6.692;2023-02-28T10:46:45;3.63;;;3.28;;
53751;SDS011;41095;53.090;6.692;2023-02-28T10:49:20;3.47;;;2.88;;
53751;SDS011;41095;53.090;6.692;2023-02-28T10:51:48;4.10;;;3.00;;
53751;SDS011;41095;53.090;6.692;2023-02-28T10:54:26;4.53;;;3.25;;
53751;SDS011;41095;53.090;6.692;2023-02-28T10:59:35;7.30;;;5.03;;
53751;SDS011;41095;53.090;6.692;2023-02-28T11:02:01;4.82;;;4.35;;
53751;SDS011;41095;53.090;6.692;2023-02-28T11:09:35;6.18;;;4.20;;
53751;SDS011;41095;53.090;6.692;2023-02-28T11:12:08;7.20;;;4.10;;
53751;SDS011;41095;53.090;6.692;2023-02-28T11:14:54;4.60;;;3.40;;
53751;SDS011;41095;53.090;6.692;2023-02-28T11:17:24;5.30;;;3.90;;
53751;SDS011;41095;53.090;6.692;2023-02-28T11:20:04;5.55;;;4.82;;
53751;SDS011;41095;53.090;6.692;2023-02-28T11:22:33;6.53;;;4.80;;
53751;SDS011;41095;53.090;6.692;2023-02-28T11:25:21;9.40;;;4.75;;
53751;SDS011;41095;53.090;6.692;2023-02-28T11:27:54;6.68;;;4.88;;
53751;SDS011;41095;53.090;6.692;2023-02-28T11:30:26;5.55;;;4.47;;
53751;SDS011;41095;53.090;6.692;2023-02-28T11:32:58;6.85;;;5.28;;
53751;SDS011;41095;53.090;6.692;2023-02-28T11:35:27;7.10;;;4.75;;
53751;SDS011;41095;53.090;6.692;2023-02-28T11:37:54;6.28;;;5.28;;
53751;SDS011;41095;53.090;6.692;2023-02-28T11:40:23;7.70;;;5.70;;
53751;SDS011;41095;53.090;6.692;2023-02-28T11:43:08;7.18;;;5.80;;
53751;SDS011;41095;53.090;6.692;2023-02-28T11:51:33;9.55;;;5.20;;
53751;SDS011;41095;53.090;6.692;2023-02-28T11:56:39;5.95;;;5.00;;
53751;SDS011;41095;53.090;6.692;2023-02-28T12:12:02;7.00;;;5.72;;
53751;SDS011;41095;53.090;6.692;2023-02-28T12:20:17;8.35;;;6.10;;
53751;SDS011;41095;53.090;6.692;2023-02-28T12:28:08;6.43;;;5.18;;
53751;SDS011;41095;53.090;6.692;2023-02-28T12:30:36;8.30;;;5.53;;
53751;SDS011;41095;53.090;6.692;2023-02-28T12:33:14;7.07;;;5.07;;
53751;SDS011;41095;53.090;6.692;2023-02-28T12:35:49;6.55;;;5.20;;
53751;SDS011;41095;53.090;6.692;2023-02-28T12:41:05;8.07;;;5.95;;
53751;SDS011;41095;53.090;6.692;2023-02-28T12:44:06;7.70;;;6.30;;
53751;SDS011;41095;53.090;6.692;2023-02-28T12:46:44;6.38;;;5.43;;
53751;SDS011;41095;53.090;6.692;2023-02-28T12:52:04;8.60;;;5.82;;
53751;SDS011;41095;53.090;6.692;2023-02-28T13:14:43;6.22;;;5.13;;
53751;SDS011;41095;53.090;6.692;2023-02-28T13:17:19;10.10;;;6.25;;
53751;SDS011;41095;53.090;6.692;2023-02-28T13:22:20;9.25;;;6.40;;
53751;SDS011;41095;53.090;6.692;2023-02-28T13:24:49;10.77;;;5.82;;
53751;SDS011;41095;53.090;6.692;2023-02-28T13:27:20;6.72;;;5.03;;
53751;SDS011;41095;53.090;6.692;2023-02-28T13:29:50;10.95;;;4.97;;
53751;SDS011;41095;53.090;6.692;2023-02-28T13:39:50;5.78;;;5.18;;
53751;SDS011;41095;53.090;6.692;2023-02-28T13:48:41;6.50;;;4.95;;
53751;SDS011;41095;53.090;6.692;2023-02-28T14:08:34;6.60;;;4.63;;
53751;SDS011;41095;53.090;6.692;2023-02-28T14:11:04;9.07;;;4.80;;
53751;SDS011;41095;53.090;6.692;2023-02-28T14:13:38;6.38;;;5.55;;
53751;SDS011;41095;53.090;6.692;2023-02-28T14:16:16;7.25;;;5.97;;
53751;SDS011;41095;53.090;6.692;2023-02-28T14:18:51;6.22;;;4.65;;
53751;SDS011;41095;53.090;6.692;2023-02-28T14:21:26;7.30;;;5.35;;
53751;SDS011;41095;53.090;6.692;2023-02-28T14:32:28;6.65;;;5.18;;
53751;SDS011;41095;53.090;6.692;2023-02-28T14:37:39;6.82;;;5.18;;
53751;SDS011;41095;53.090;6.692;2023-02-28T14:42:56;7.00;;;6.00;;
53751;SDS011;41095;53.090;6.692;2023-02-28T14:45:30;8.85;;;5.53;;
53751;SDS011;41095;53.090;6.692;2023-02-28T14:47:57;6.93;;;5.18;;
53751;SDS011;41095;53.090;6.692;2023-02-28T14:50:27;8.52;;;6.18;;
53751;SDS011;41095;53.090;6.692;2023-02-28T14:53:03;9.60;;;5.43;;
53751;SDS011;41095;53.090;6.692;2023-02-28T14:55:32;6.10;;;5.35;;
53751;SDS011;41095;53.090;6.692;2023-02-28T14:58:01;6.38;;;5.03;;
53751;SDS011;41095;53.090;6.692;2023-02-28T15:00:35;7.15;;;5.82;;
53751;SDS011;41095;53.090;6.692;2023-02-28T15:03:18;9.38;;;5.63;;
53751;SDS011;41095;53.090;6.692;2023-02-28T15:05:54;8.48;;;5.35;;
53751;SDS011;41095;53.090;6.692;2023-02-28T15:08:22;7.22;;;5.63;;
53751;SDS011;41095;53.090;6.692;2023-02-28T15:13:23;8.80;;;5.53;;
53751;SDS011;41095;53.090;6.692;2023-02-28T15:16:01;6.25;;;5.57;;
53751;SDS011;41095;53.090;6.692;2023-02-28T15:18:56;6.50;;;5.80;;
53751;SDS011;41095;53.090;6.692;2023-02-28T15:21:24;6.90;;;6.15;;
53751;SDS011;41095;53.090;6.692;2023-02-28T15:26:43;7.60;;;5.85;;
53751;SDS011;41095;53.090;6.692;2023-02-28T15:29:20;6.15;;;5.57;;
53751;SDS011;41095;53.090;6.692;2023-02-28T15:31:49;7.65;;;6.07;;
53751;SDS011;41095;53.090;6.692;2023-02-28T15:34:38;7.93;;;6.45;;
53751;SDS011;41095;53.090;6.692;2023-02-28T15:39:51;8.73;;;6.20;;
53751;SDS011;41095;53.090;6.692;2023-02-28T15:42:19;6.55;;;5.93;;
53751;SDS011;41095;53.090;6.692;2023-02-28T15:44:47;8.68;;;6.13;;
53751;SDS011;41095;53.090;6.692;2023-02-28T15:47:20;7.32;;;6.13;;
53751;SDS011;41095;53.090;6.692;2023-02-28T15:49:55;10.82;;;6.90;;
53751;SDS011;41095;53.090;6.692;2023-02-28T15:52:26;10.43;;;7.05;;
53751;SDS011;41095;53.090;6.692;2023-02-28T15:54:56;10.30;;;6.75;;
53751;SDS011;41095;53.090;6.692;2023-02-28T15:57:27;7.93;;;6.72;;
53751;SDS011;41095;53.090;6.692;2023-02-28T15:59:58;7.45;;;6.50;;
53751;SDS011;41095;53.090;6.692;2023-02-28T16:02:33;7.07;;;6.43;;
53751;SDS011;41095;53.090;6.692;2023-02-28T16:07:35;8.10;;;6.30;;
53751;SDS011;41095;53.090;6.692;2023-02-28T16:10:04;7.88;;;7.13;;
53751;SDS011;41095;53.090;6.692;2023-02-28T16:12:31;7.63;;;6.60;;
53751;SDS011;41095;53.090;6.692;2023-02-28T16:15:00;9.23;;;7.75;;
53751;SDS011;41095;53.090;6.692;2023-02-28T16:17:34;8.73;;;6.85;;
53751;SDS011;41095;53.090;6.692;2023-02-28T16:20:13;7.65;;;6.68;;
53751;SDS011;41095;53.090;6.692;2023-02-28T16:22:43;9.85;;;7.53;;
53751;SDS011;41095;53.090;6.692;2023-02-28T16:25:15;8.13;;;7.40;;
53751;SDS011;41095;53.090;6.692;2023-02-28T16:27:42;8.07;;;7.28;;
53751;SDS011;41095;53.090;6.692;2023-02-28T16:30:15;8.63;;;7.53;;
53751;SDS011;41095;53.090;6.692;2023-02-28T16:32:43;8.20;;;7.32;;
53751;SDS011;41095;53.090;6.692;2023-02-28T16:35:10;7.47;;;6.78;;
53751;SDS011;41095;53.090;6.692;2023-02-28T16:37:36;8.48;;;7.68;;
53751;SDS011;41095;53.090;6.692;2023-02-28T16:40:02;8.48;;;7.25;;
53751;SDS011;41095;53.090;6.692;2023-02-28T16:42:28;7.38;;;6.78;;
53751;SDS011;41095;53.090;6.692;2023-02-28T16:44:56;8.40;;;7.18;;
53751;SDS011;41095;53.090;6.692;2023-02-28T16:47:23;8.15;;;7.03;;
53751;SDS011;41095;53.090;6.692;2023-02-28T16:49:49;8.13;;;7.32;;
53751;SDS011;41095;53.090;6.692;2023-02-28T16:52:14;8.20;;;7.22;;
53751;SDS011;41095;53.090;6.692;2023-02-28T16:54:40;7.20;;;6.25;;
53751;SDS011;41095;53.090;6.692;2023-02-28T16:57:13;7.07;;;6.38;;
53751;SDS011;41095;53.090;6.692;2023-02-28T16:59:45;8.13;;;7.43;;
53751;SDS011;41095;53.090;6.692;2023-02-28T17:02:12;7.18;;;6.47;;
53751;SDS011;41095;53.090;6.692;2023-02-28T17:04:40;6.85;;;6.22;;
53751;SDS011;41095;53.090;6.692;2023-02-28T17:07:08;9.75;;;7.50;;
53751;SDS011;41095;53.090;6.692;2023-02-28T17:09:37;8.00;;;7.30;;
53751;SDS011;41095;53.090;6.692;2023-02-28T17:12:03;8.80;;;7.78;;
53751;SDS011;41095;53.090;6.692;2023-02-28T17:14:29;6.90;;;6.38;;
53751;SDS011;41095;53.090;6.692;2023-02-28T17:16:55;8.38;;;7.57;;
53751;SDS011;41095;53.090;6.692;2023-02-28T17:19:20;6.90;;;6.30;;
53751;SDS011;41095;53.090;6.692;2023-02-28T17:21:46;8.27;;;6.28;;
53751;SDS011;41095;53.090;6.692;2023-02-28T17:24:12;9.20;;;6.97;;
53751;SDS011;41095;53.090;6.692;2023-02-28T17:26:39;8.43;;;6.18;;
53751;SDS011;41095;53.090;6.692;2023-02-28T17:29:09;7.38;;;6.68;;
53751;SDS011;41095;53.090;6.692;2023-02-28T17:31:44;8.38;;;7.10;;
53751;SDS011;41095;53.090;6.692;2023-02-28T17:34:09;8.02;;;7.22;;
53751;SDS011;41095;53.090;6.692;2023-02-28T17:36:35;8.52;;;7.68;;
53751;SDS011;41095;53.090;6.692;2023-02-28T17:39:02;7.38;;;6.68;;
53751;SDS011;41095;53.090;6.692;2023-02-28T17:41:34;9.05;;;7.55;;
53751;SDS011;41095;53.090;6.692;2023-02-28T17:43:59;8.23;;;7.43;;
53751;SDS011;41095;53.090;6.692;2023-02-28T17:46:25;11.00;;;8.20;;
53751;SDS011;41095;53.090;6.692;2023-02-28T17:48:53;12.02;;;10.85;;
53751;SDS011;41095;53.090;6.692;2023-02-28T17:51:22;10.73;;;9.75;;